Time;durP1;ratioP1;P1;durP2;ratioP2;P2;SDS_P1;SDS_P2;PMS_P1;PMS_P2;Temp;Humidity;BMP_temperature;BMP_pressure;BME280_temperature;BME280_humidity;BME280_pressure;Samples;Min_cycle;Max_cycle;Signal;HPM_P1;HPM_P2
2021/12/10 00:00:38;;;;;;;;;;;5.80;99.90;;;;;;5072442;28;20293;-58
2021/12/10 00:03:05;;;;;;;;;;;5.80;99.90;;;;;;5074214;28;20286;-58
2021/12/10 00:05:32;;;;;;;;;;;5.80;99.90;;;;;;5073775;28;19956;-58
2021/12/10 00:07:59;;;;;;;;;;;5.80;99.90;;;;;;5073444;28;19917;-59
2021/12/10 00:10:27;;;;;;;;;;;5.80;99.90;;;;;;5072931;28;19922;-59
2021/12/10 00:12:53;;;;;;;;;;;5.70;99.90;;;;;;5056430;28;19951;-60
2021/12/10 00:15:20;;;;;;;;;;;5.70;99.90;;;;;;5072000;28;20379;-58
2021/12/10 00:17:46;;;;;;;;;;;5.80;99.90;;;;;;5073587;28;19912;-59
2021/12/10 00:20:12;;;;;;;;;;;5.80;99.90;;;;;;5073755;28;19961;-59
2021/12/10 00:22:41;;;;;;;;;;;5.80;99.90;;;;;;5073486;28;19924;-59
2021/12/10 00:25:09;;;;;;;;;;;5.70;99.90;;;;;;5073781;28;19920;-59
2021/12/10 00:27:35;;;;;;;;;;;5.70;99.90;;;;;;5071156;28;19920;-59
2021/12/10 00:30:08;;;;;;;;;;;5.70;99.90;;;;;;5055823;28;19943;-59
2021/12/10 00:32:45;;;;;;;;;;;5.80;99.90;;;;;;5073953;28;19948;-59
2021/12/10 00:35:21;;;;;;;;;;;5.70;99.90;;;;;;5073369;28;20152;-58
2021/12/10 00:37:47;;;;;;;;;;;5.60;99.90;;;;;;5072996;28;20722;-59
2021/12/10 00:40:14;;;;;;;;;;;5.70;99.90;;;;;;5055875;28;20026;-58
2021/12/10 00:42:39;;;;;;;;;;;5.70;99.90;;;;;;5071020;28;20316;-59
2021/12/10 00:45:06;;;;;;;;;;;5.70;99.90;;;;;;5073193;28;19954;-58
2021/12/10 00:47:32;;;;;;;;;;;5.70;99.90;;;;;;5073567;28;19969;-57
2021/12/10 00:49:58;;;;;;;;;;;5.60;99.90;;;;;;5071538;28;20281;-59
2021/12/10 00:52:24;;;;;;;;;;;5.60;99.90;;;;;;5071360;28;19916;-58
2021/12/10 00:54:49;;;;;;;;;;;5.70;99.90;;;;;;5072918;28;19915;-59
2021/12/10 00:57:15;;;;;;;;;;;5.60;99.90;;;;;;5071853;28;20015;-59
2021/12/10 00:59:42;;;;;;;;;;;5.70;99.90;;;;;;5073099;28;19916;-58
2021/12/10 01:02:09;;;;;;;;;;;5.70;99.90;;;;;;5072542;28;19912;-59
2021/12/10 01:04:36;;;;;;;;;;;5.70;99.90;;;;;;5061334;28;20405;-58
2021/12/10 01:07:04;;;;;;;;;;;5.70;99.90;;;;;;5073016;28;19960;-57
2021/12/10 01:09:32;;;;;;;;;;;5.60;99.90;;;;;;5070929;28;19915;-58
2021/12/10 01:12:06;;;;;;;;;;;5.60;99.90;;;;;;5072252;28;19908;-58
2021/12/10 01:14:57;;;;;;;;;;;5.70;99.90;;;;;;5072686;28;20321;-57
2021/12/10 01:25:53;;;;;;;;;;;5.60;99.90;;;;;;5072967;28;20034;-58
2021/12/10 01:28:19;;;;;;;;;;;5.60;99.90;;;;;;5071614;28;19917;-58
2021/12/10 01:30:44;;;;;;;;;;;5.60;99.90;;;;;;5053979;28;19969;-59
2021/12/10 01:33:11;;;;;;;;;;;5.60;99.90;;;;;;5070765;28;19908;-60
2021/12/10 01:35:49;;;;;;;;;;;5.60;99.90;;;;;;5072329;28;19916;-59
2021/12/10 01:38:15;;;;;;;;;;;5.60;99.90;;;;;;5072907;28;19920;-59
2021/12/10 01:40:42;;;;;;;;;;;5.60;99.90;;;;;;5072660;28;19920;-59
2021/12/10 01:43:11;;;;;;;;;;;5.60;99.90;;;;;;5073004;28;20419;-58
2021/12/10 01:45:45;;;;;;;;;;;5.70;99.90;;;;;;5070459;28;19916;-58
2021/12/10 01:48:13;;;;;;;;;;;5.60;99.90;;;;;;5069134;28;19913;-58
2021/12/10 01:50:39;;;;;;;;;;;5.60;99.90;;;;;;5072456;28;19912;-59
2021/12/10 01:53:06;;;;;;;;;;;5.60;99.90;;;;;;5072952;28;19913;-58
2021/12/10 01:55:33;;;;;;;;;;;5.70;99.90;;;;;;5072564;28;19920;-60
2021/12/10 01:57:59;;;;;;;;;;;5.60;99.90;;;;;;5072342;28;20027;-59
2021/12/10 02:00:28;;;;;;;;;;;5.60;99.90;;;;;;5070150;28;19908;-58
2021/12/10 02:02:53;;;;;;;;;;;5.60;99.90;;;;;;5071225;28;20420;-59
2021/12/10 02:05:19;;;;;;;;;;;5.60;99.90;;;;;;5074927;28;20066;-59
2021/12/10 02:07:45;;;;;;;;;;;5.60;99.90;;;;;;5074699;28;19928;-57
2021/12/10 02:10:11;;;;;;;;;;;5.70;99.90;;;;;;5075425;28;19958;-59
2021/12/10 02:12:37;;;;;;;;;;;5.70;99.90;;;;;;5074292;28;19912;-59
2021/12/10 02:15:04;;;;;;;;;;;5.80;99.90;;;;;;5076176;28;19908;-58
2021/12/10 02:17:32;;;;;;;;;;;5.70;99.90;;;;;;5076053;28;19924;-59
2021/12/10 02:20:01;;;;;;;;;;;5.70;99.90;;;;;;5076405;28;19912;-59
2021/12/10 02:22:26;;;;;;;;;;;5.70;99.90;;;;;;5076148;28;19912;-57
2021/12/10 02:24:52;;;;;;;;;;;5.70;99.90;;;;;;5059495;28;19920;-59
2021/12/10 02:27:17;;;;;;;;;;;5.70;99.90;;;;;;5074306;28;19921;-59
2021/12/10 02:29:42;;;;;;;;;;;5.70;99.90;;;;;;5074183;28;19920;-59
2021/12/10 02:32:10;;;;;;;;;;;5.80;99.90;;;;;;5075540;28;19978;-59
2021/12/10 02:34:36;;;;;;;;;;;5.80;99.90;;;;;;5076082;28;19913;-59
2021/12/10 02:37:02;;;;;;;;;;;5.80;99.90;;;;;;5075680;28;20450;-59
2021/12/10 02:39:28;;;;;;;;;;;5.90;99.90;;;;;;5073156;28;19917;-59
2021/12/10 02:41:54;;;;;;;;;;;5.90;99.90;;;;;;5076005;28;20254;-60
2021/12/10 02:44:22;;;;;;;;;;;5.90;99.90;;;;;;5075426;28;19917;-58
2021/12/10 02:46:47;;;;;;;;;;;5.90;99.90;;;;;;5074212;28;19932;-59
2021/12/10 02:49:13;;;;;;;;;;;5.90;99.90;;;;;;5074417;28;20346;-59
2021/12/10 02:51:40;;;;;;;;;;;5.90;99.90;;;;;;5073143;28;20373;-59
2021/12/10 02:54:08;;;;;;;;;;;6.00;99.90;;;;;;5075571;28;19909;-59
2021/12/10 02:56:33;;;;;;;;;;;5.90;99.90;;;;;;5075233;28;20356;-59
2021/12/10 02:59:00;;;;;;;;;;;5.90;99.90;;;;;;5075843;28;20006;-59
2021/12/10 03:01:25;;;;;;;;;;;6.00;99.90;;;;;;5074957;28;20007;-58
2021/12/10 03:03:51;;;;;;;;;;;6.00;99.90;;;;;;5075090;28;20070;-58
2021/12/10 03:06:17;;;;;;;;;;;6.00;99.90;;;;;;5073420;28;20308;-58
2021/12/10 03:08:44;;;;;;;;;;;6.00;99.90;;;;;;5075347;28;19912;-58
2021/12/10 03:11:11;;;;;;;;;;;6.10;99.90;;;;;;5075043;28;20007;-59
2021/12/10 03:13:37;;;;;;;;;;;6.10;99.90;;;;;;5075060;28;19923;-58
2021/12/10 03:16:03;;;;;;;;;;;6.10;99.90;;;;;;5074463;28;19916;-59
2021/12/10 03:18:28;;;;;;;;;;;6.10;99.90;;;;;;5073058;28;20331;-58
2021/12/10 03:20:54;;;;;;;;;;;6.10;99.90;;;;;;5057288;28;19924;-59
2021/12/10 03:23:19;;;;;;;;;;;6.10;99.90;;;;;;5074921;28;19935;-58
2021/12/10 03:25:45;;;;;;;;;;;6.20;99.90;;;;;;5073586;28;19921;-59
2021/12/10 03:28:10;;;;;;;;;;;6.30;99.90;;;;;;5073586;28;19916;-59
2021/12/10 03:30:38;;;;;;;;;;;6.50;99.90;;;;;;5072632;28;19912;-59
2021/12/10 03:33:04;;;;;;;;;;;6.60;99.90;;;;;;5075089;28;19931;-59
2021/12/10 03:35:31;;;;;;;;;;;6.80;99.90;;;;;;5074401;28;20361;-59
2021/12/10 03:37:59;;;;;;;;;;;6.90;99.90;;;;;;5074650;28;19957;-59
2021/12/10 03:40:25;;;;;;;;;;;7.00;99.90;;;;;;5074467;28;19925;-59
2021/12/10 03:42:57;;;;;;;;;;;7.10;99.90;;;;;;5074508;28;20711;-59
2021/12/10 03:45:23;;;;;;;;;;;7.20;99.90;;;;;;5068229;28;20285;-58
2021/12/10 03:47:49;;;;;;;;;;;7.40;99.90;;;;;;5074283;28;19913;-59
2021/12/10 03:50:21;;;;;;;;;;;7.40;99.90;;;;;;5074232;28;19916;-58
2021/12/10 03:52:47;;;;;;;;;;;7.50;99.90;;;;;;5074500;28;19927;-60
2021/12/10 03:55:14;;;;;;;;;;;7.60;99.90;;;;;;5074924;28;19912;-59
2021/12/10 03:57:39;;;;;;;;;;;7.70;99.90;;;;;;5071909;28;19913;-60
2021/12/10 04:00:05;;;;;;;;;;;7.80;99.90;;;;;;5074101;28;19908;-59
2021/12/10 04:02:31;;;;;;;;;;;7.80;99.90;;;;;;5074376;28;19935;-58
2021/12/10 04:04:56;;;;;;;;;;;7.90;99.90;;;;;;5072526;28;20652;-59
2021/12/10 04:07:24;;;;;;;;;;;8.00;99.90;;;;;;5072732;28;19948;-59
2021/12/10 04:09:51;;;;;;;;;;;8.00;99.90;;;;;;5073729;28;20414;-59
2021/12/10 04:12:17;;;;;;;;;;;8.10;99.90;;;;;;5072531;28;19908;-59
2021/12/10 04:14:43;;;;;;;;;;;8.10;99.90;;;;;;5073459;28;19912;-58
2021/12/10 04:17:09;;;;;;;;;;;8.10;99.90;;;;;;5074022;28;19912;-59
2021/12/10 04:19:36;;;;;;;;;;;8.20;99.90;;;;;;5073407;28;20003;-58
2021/12/10 04:22:03;;;;;;;;;;;8.20;99.90;;;;;;5073814;28;19912;-60
2021/12/10 04:24:30;;;;;;;;;;;8.20;99.90;;;;;;5071327;28;20007;-59
2021/12/10 04:26:56;;;;;;;;;;;8.20;99.90;;;;;;5072692;28;19921;-59
2021/12/10 04:29:22;;;;;;;;;;;8.20;99.90;;;;;;5073845;28;19944;-59
2021/12/10 04:31:48;;;;;;;;;;;8.20;99.90;;;;;;5073326;28;19959;-59
2021/12/10 04:34:14;;;;;;;;;;;8.30;99.90;;;;;;5073603;28;19916;-59
2021/12/10 04:36:39;;;;;;;;;;;8.30;99.90;;;;;;5071133;28;20258;-59
2021/12/10 04:39:05;;;;;;;;;;;8.30;99.90;;;;;;5073579;28;20288;-58
2021/12/10 04:41:31;;;;;;;;;;;8.30;99.90;;;;;;5073193;28;19970;-59
2021/12/10 04:43:57;;;;;;;;;;;8.30;99.90;;;;;;5071996;28;19916;-59
2021/12/10 04:46:22;;;;;;;;;;;8.20;99.90;;;;;;5072109;28;20341;-59
2021/12/10 04:48:51;;;;;;;;;;;8.30;99.90;;;;;;5072575;28;20331;-59
2021/12/10 04:51:18;;;;;;;;;;;8.20;99.90;;;;;;5071551;28;19913;-60
2021/12/10 04:53:44;;;;;;;;;;;8.20;99.90;;;;;;5073739;28;19919;-58
2021/12/10 04:56:09;;;;;;;;;;;8.30;99.90;;;;;;5073024;28;19917;-59
2021/12/10 04:58:35;;;;;;;;;;;8.20;99.90;;;;;;5072804;28;19916;-58
2021/12/10 05:01:03;;;;;;;;;;;8.30;99.90;;;;;;5073233;28;19912;-57
2021/12/10 05:03:28;;;;;;;;;;;8.20;99.90;;;;;;5070875;28;19909;-58
2021/12/10 05:06:00;;;;;;;;;;;8.30;99.90;;;;;;5073031;28;20464;-59
2021/12/10 05:08:25;;;;;;;;;;;8.20;99.90;;;;;;5073374;28;19919;-59
2021/12/10 05:10:51;;;;;;;;;;;8.20;99.90;;;;;;5072803;28;19913;-59
2021/12/10 05:13:16;;;;;;;;;;;8.10;99.90;;;;;;5072746;28;19913;-58
2021/12/10 05:15:43;;;;;;;;;;;8.10;99.90;;;;;;5071199;28;20387;-59
2021/12/10 05:18:12;;;;;;;;;;;8.10;99.90;;;;;;5072649;28;19954;-59
2021/12/10 05:20:39;;;;;;;;;;;8.10;99.90;;;;;;5072981;28;19913;-59
2021/12/10 05:23:05;;;;;;;;;;;8.20;99.90;;;;;;5071784;28;19923;-57
2021/12/10 05:25:31;;;;;;;;;;;8.10;99.90;;;;;;5071218;28;19919;-59
2021/12/10 05:27:57;;;;;;;;;;;8.10;99.90;;;;;;5073173;28;19912;-58
2021/12/10 05:30:23;;;;;;;;;;;8.10;99.90;;;;;;5070937;28;19994;-58
2021/12/10 05:32:49;;;;;;;;;;;8.10;99.90;;;;;;5072853;28;19912;-59
2021/12/10 05:35:15;;;;;;;;;;;8.10;99.90;;;;;;5072796;28;20301;-59
2021/12/10 05:37:41;;;;;;;;;;;8.10;99.90;;;;;;5073140;28;20353;-58
2021/12/10 05:40:07;;;;;;;;;;;8.10;99.90;;;;;;5075946;28;20392;-59
2021/12/10 05:42:33;;;;;;;;;;;8.10;99.90;;;;;;5057261;28;19962;-58
2021/12/10 05:44:58;;;;;;;;;;;8.10;99.90;;;;;;5077313;28;19956;-59
2021/12/10 05:47:24;;;;;;;;;;;8.10;99.90;;;;;;5076544;28;20200;-59
2021/12/10 05:49:49;;;;;;;;;;;8.10;99.90;;;;;;5076703;28;20372;-58
2021/12/10 05:52:15;;;;;;;;;;;8.00;99.90;;;;;;5076717;28;19912;-58
2021/12/10 05:54:41;;;;;;;;;;;8.10;99.90;;;;;;5074466;28;19916;-59
2021/12/10 05:57:07;;;;;;;;;;;8.00;99.90;;;;;;5076951;28;20025;-59
2021/12/10 05:59:33;;;;;;;;;;;8.00;99.90;;;;;;5076494;28;20087;-59
2021/12/10 06:01:58;;;;;;;;;;;7.90;99.90;;;;;;5075036;28;19912;-59
2021/12/10 06:04:27;;;;;;;;;;;8.00;99.90;;;;;;5074810;28;19923;-58
2021/12/10 06:06:53;;;;;;;;;;;8.00;99.90;;;;;;5076175;28;19936;-59
2021/12/10 06:09:19;;;;;;;;;;;8.00;99.90;;;;;;5073926;28;19909;-60
2021/12/10 06:11:44;;;;;;;;;;;8.00;99.90;;;;;;5076222;28;19912;-59
2021/12/10 06:14:10;;;;;;;;;;;8.00;99.90;;;;;;5076477;28;19913;-60
2021/12/10 06:16:35;;;;;;;;;;;7.90;99.90;;;;;;5075966;28;19920;-59
2021/12/10 06:19:02;;;;;;;;;;;8.00;99.90;;;;;;5076201;28;19919;-58
2021/12/10 06:21:28;;;;;;;;;;;7.90;99.90;;;;;;5073385;28;19963;-60
2021/12/10 06:23:53;;;;;;;;;;;7.90;99.90;;;;;;5074644;28;19947;-58
2021/12/10 06:26:19;;;;;;;;;;;7.90;99.90;;;;;;5075815;28;20382;-59
2021/12/10 06:28:45;;;;;;;;;;;7.90;99.90;;;;;;5075619;28;19917;-61
2021/12/10 06:31:15;;;;;;;;;;;7.90;99.90;;;;;;5075932;28;20874;-61
2021/12/10 06:33:40;;;;;;;;;;;7.90;99.90;;;;;;5073570;28;19909;-60
2021/12/10 06:36:06;;;;;;;;;;;7.90;99.90;;;;;;5075734;28;20411;-59
2021/12/10 06:38:32;;;;;;;;;;;7.80;99.90;;;;;;5075795;28;19913;-59
2021/12/10 06:40:57;;;;;;;;;;;7.80;99.90;;;;;;5074120;28;20369;-59
2021/12/10 06:43:23;;;;;;;;;;;7.70;99.90;;;;;;5074536;28;19919;-61
2021/12/10 06:45:51;;;;;;;;;;;7.70;99.90;;;;;;5074978;28;20007;-60
2021/12/10 06:48:17;;;;;;;;;;;7.70;99.90;;;;;;5074271;28;19924;-60
2021/12/10 06:50:45;;;;;;;;;;;7.60;99.90;;;;;;5056552;28;20391;-60
2021/12/10 06:53:11;;;;;;;;;;;7.60;99.90;;;;;;5075083;28;19951;-60
2021/12/10 06:55:37;;;;;;;;;;;7.50;99.90;;;;;;5075287;28;19967;-60
2021/12/10 06:58:04;;;;;;;;;;;7.50;99.90;;;;;;5074987;28;19969;-60
2021/12/10 07:00:37;;;;;;;;;;;7.50;99.90;;;;;;5073349;28;19908;-59
2021/12/10 07:03:03;;;;;;;;;;;7.50;99.90;;;;;;5074913;28;19909;-59
2021/12/10 07:05:28;;;;;;;;;;;7.50;99.90;;;;;;5074939;28;19927;-59
2021/12/10 07:07:55;;;;;;;;;;;7.50;99.90;;;;;;5074670;28;20114;-59
2021/12/10 07:10:21;;;;;;;;;;;7.50;99.90;;;;;;5075430;28;20396;-60
2021/12/10 07:12:46;;;;;;;;;;;7.40;99.90;;;;;;5073887;28;20009;-59
2021/12/10 07:15:14;;;;;;;;;;;7.50;99.90;;;;;;5074429;28;19908;-59
2021/12/10 07:17:40;;;;;;;;;;;7.40;99.90;;;;;;5074736;28;19919;-58
2021/12/10 07:20:07;;;;;;;;;;;7.40;99.90;;;;;;5073376;28;19919;-58
2021/12/10 07:22:32;;;;;;;;;;;7.40;99.90;;;;;;5051140;28;20296;-59
2021/12/10 07:24:58;;;;;;;;;;;7.30;99.90;;;;;;5075342;28;19923;-58
2021/12/10 07:27:23;;;;;;;;;;;7.20;99.90;;;;;;5072775;28;20011;-58
2021/12/10 07:29:49;;;;;;;;;;;7.10;99.90;;;;;;5075162;28;19999;-58
2021/12/10 07:32:14;;;;;;;;;;;7.00;99.90;;;;;;5074507;28;19917;-59
2021/12/10 07:34:40;;;;;;;;;;;7.00;99.90;;;;;;5073606;28;20073;-59
2021/12/10 07:37:08;;;;;;;;;;;7.00;99.90;;;;;;5074474;28;19974;-58
2021/12/10 07:39:35;;;;;;;;;;;7.00;99.90;;;;;;5072217;28;19934;-57
2021/12/10 07:42:01;;;;;;;;;;;7.00;99.90;;;;;;5073757;28;19919;-58
2021/12/10 07:44:27;;;;;;;;;;;6.90;99.90;;;;;;5073705;28;19916;-57
2021/12/10 07:46:52;;;;;;;;;;;6.70;99.90;;;;;;5069345;28;19960;-57
2021/12/10 07:49:26;;;;;;;;;;;6.60;99.90;;;;;;5072363;28;20003;-53
2021/12/10 07:51:52;;;;;;;;;;;6.60;99.90;;;;;;5068502;28;19960;-59
2021/12/10 07:54:18;;;;;;;;;;;6.60;99.90;;;;;;5069320;28;19962;-55
2021/12/10 07:56:43;;;;;;;;;;;6.50;99.90;;;;;;5063131;28;20373;-55
2021/12/10 07:59:09;;;;;;;;;;;6.50;99.90;;;;;;5065046;28;19919;-55
2021/12/10 08:01:34;;;;;;;;;;;6.50;99.90;;;;;;5067220;28;20510;-56
2021/12/10 08:04:01;;;;;;;;;;;6.50;99.90;;;;;;5067055;28;19936;-56
2021/12/10 08:06:27;;;;;;;;;;;6.40;99.90;;;;;;5067460;28;19917;-57
2021/12/10 08:08:53;;;;;;;;;;;6.40;99.90;;;;;;5069301;28;19931;-56
2021/12/10 08:11:19;;;;;;;;;;;6.30;99.90;;;;;;5067357;28;20433;-56
2021/12/10 08:13:45;;;;;;;;;;;6.30;99.90;;;;;;5067656;28;19923;-57
2021/12/10 08:16:11;;;;;;;;;;;6.30;99.90;;;;;;5067896;28;19913;-58
2021/12/10 08:18:37;;;;;;;;;;;6.20;99.90;;;;;;5070030;28;20438;-58
2021/12/10 08:21:02;;;;;;;;;;;6.20;99.90;;;;;;5068526;28;19953;-58
2021/12/10 08:23:29;;;;;;;;;;;6.10;99.90;;;;;;5062023;28;20300;-59
2021/12/10 08:25:54;;;;;;;;;;;6.00;99.90;;;;;;5061988;28;20077;-57
2021/12/10 08:28:23;;;;;;;;;;;5.90;99.90;;;;;;5065946;28;20011;-57
2021/12/10 08:30:49;;;;;;;;;;;5.80;99.90;;;;;;5066312;28;19951;-59
2021/12/10 08:33:15;;;;;;;;;;;5.70;99.90;;;;;;5068564;28;20396;-58
2021/12/10 08:35:44;;;;;;;;;;;5.70;99.90;;;;;;5065978;28;19918;-58
2021/12/10 08:38:10;;;;;;;;;;;5.60;99.90;;;;;;5067349;28;20297;-57
2021/12/10 08:40:38;;;;;;;;;;;5.60;99.90;;;;;;5067001;28;19921;-57
2021/12/10 08:43:04;;;;;;;;;;;5.70;99.90;;;;;;5066918;28;19997;-57
2021/12/10 08:45:30;;;;;;;;;;;5.70;99.90;;;;;;5068370;28;19916;-58
2021/12/10 08:47:56;;;;;;;;;;;5.80;99.90;;;;;;5067387;28;20301;-58
2021/12/10 08:50:23;;;;;;;;;;;5.80;99.90;;;;;;5066182;28;19912;-57
2021/12/10 08:52:50;;;;;;;;;;;5.90;99.90;;;;;;5065286;28;19946;-58
2021/12/10 08:55:17;;;;;;;;;;;5.90;99.90;;;;;;5066460;28;19923;-58
2021/12/10 08:57:43;;;;;;;;;;;5.90;99.90;;;;;;5067059;28;19969;-57
2021/12/10 09:00:09;;;;;;;;;;;6.00;99.90;;;;;;5068032;28;19916;-57
2021/12/10 09:02:37;;;;;;;;;;;5.90;99.90;;;;;;5066402;28;20070;-59
2021/12/10 09:05:07;;;;;;;;;;;5.90;99.90;;;;;;5066021;28;19973;-57
2021/12/10 09:07:33;;;;;;;;;;;5.90;99.90;;;;;;5066050;28;19920;-56
2021/12/10 09:09:59;;;;;;;;;;;5.90;99.90;;;;;;5066259;28;19912;-57
2021/12/10 09:12:27;;;;;;;;;;;5.90;99.90;;;;;;5068625;28;19916;-58
2021/12/10 09:14:55;;;;;;;;;;;5.80;99.90;;;;;;5066444;28;20038;-57
2021/12/10 09:17:23;;;;;;;;;;;5.80;99.90;;;;;;5063639;28;19974;-55
2021/12/10 09:19:50;;;;;;;;;;;5.80;99.90;;;;;;5066799;28;19920;-57
2021/12/10 09:22:16;;;;;;;;;;;5.90;99.90;;;;;;5066446;28;19947;-57
2021/12/10 09:24:42;;;;;;;;;;;5.90;99.90;;;;;;5067415;28;19982;-57
2021/12/10 09:27:08;;;;;;;;;;;6.00;99.90;;;;;;5065663;28;19958;-56
2021/12/10 09:29:36;;;;;;;;;;;6.10;99.90;;;;;;5065881;28;20434;-55
2021/12/10 09:32:04;;;;;;;;;;;6.10;99.90;;;;;;5067677;28;20408;-57
2021/12/10 09:34:29;;;;;;;;;;;6.20;99.90;;;;;;5066152;28;19916;-56
2021/12/10 09:36:55;;;;;;;;;;;6.30;99.90;;;;;;5067323;28;19917;-58
2021/12/10 09:39:21;;;;;;;;;;;6.30;99.90;;;;;;5069761;28;19909;-59
2021/12/10 09:41:47;;;;;;;;;;;6.30;99.90;;;;;;5066934;28;19965;-58
2021/12/10 09:44:15;;;;;;;;;;;6.30;99.90;;;;;;5066637;28;19975;-58
2021/12/10 09:46:40;;;;;;;;;;;6.30;99.90;;;;;;5066088;28;20000;-57
2021/12/10 09:49:07;;;;;;;;;;;6.30;99.90;;;;;;5066315;28;19963;-58
2021/12/10 09:51:35;;;;;;;;;;;6.40;99.90;;;;;;5069375;28;20023;-57
2021/12/10 09:54:04;;;;;;;;;;;6.40;99.90;;;;;;5069188;28;19923;-58
2021/12/10 09:56:30;;;;;;;;;;;6.50;99.90;;;;;;5066062;28;19952;-58
2021/12/10 09:58:56;;;;;;;;;;;6.50;99.90;;;;;;5066193;28;19979;-58
2021/12/10 10:01:28;;;;;;;;;;;6.50;99.90;;;;;;5066124;28;19958;-58
2021/12/10 10:04:00;;;;;;;;;;;6.50;99.90;;;;;;5067485;28;19948;-58
2021/12/10 10:06:27;;;;;;;;;;;6.60;99.90;;;;;;5064514;28;20417;-57
2021/12/10 10:08:52;;;;;;;;;;;6.80;99.90;;;;;;5068237;28;20003;-59
2021/12/10 10:11:20;;;;;;;;;;;6.80;99.90;;;;;;5066046;28;19999;-58
2021/12/10 10:13:48;;;;;;;;;;;6.80;99.90;;;;;;5072404;28;19982;-59
2021/12/10 10:16:15;;;;;;;;;;;6.70;99.90;;;;;;5071472;28;19965;-58
2021/12/10 10:18:41;;;;;;;;;;;6.80;99.90;;;;;;5069746;28;20003;-58
2021/12/10 10:21:12;;;;;;;;;;;6.80;99.90;;;;;;5068013;28;19962;-56
2021/12/10 10:23:41;;;;;;;;;;;6.80;99.90;;;;;;5071537;28;19965;-56
2021/12/10 10:26:08;;;;;;;;;;;6.80;99.90;;;;;;5073469;28;20538;-57
2021/12/10 10:28:35;;;;;;;;;;;6.80;99.90;;;;;;5075476;28;20003;-58
2021/12/10 10:31:04;;;;;;;;;;;6.90;99.90;;;;;;5075377;28;19991;-58
2021/12/10 10:33:30;;;;;;;;;;;6.90;99.90;;;;;;5073498;28;19916;-57
2021/12/10 10:35:59;;;;;;;;;;;7.00;99.90;;;;;;5073504;28;19953;-58
2021/12/10 10:38:25;;;;;;;;;;;7.00;99.90;;;;;;5073783;28;19916;-56
2021/12/10 10:40:54;;;;;;;;;;;7.00;99.90;;;;;;5074871;28;19942;-57
2021/12/10 10:43:20;;;;;;;;;;;7.10;99.90;;;;;;5063900;28;19927;-58
2021/12/10 10:45:45;;;;;;;;;;;7.20;99.90;;;;;;5067176;28;19917;-54
2021/12/10 10:48:13;;;;;;;;;;;7.20;99.90;;;;;;5071328;28;19920;-57
2021/12/10 10:50:53;;;;;;;;;;;7.30;99.90;;;;;;5070027;28;20062;-55
2021/12/10 10:53:21;;;;;;;;;;;7.30;99.90;;;;;;5069657;28;19935;-59
2021/12/10 10:55:55;;;;;;;;;;;7.20;99.90;;;;;;5070099;28;19935;-57
2021/12/10 10:58:23;;;;;;;;;;;7.20;99.90;;;;;;5067517;28;19920;-57
2021/12/10 11:01:00;;;;;;;;;;;7.10;99.90;;;;;;5070006;28;19921;-57
2021/12/10 11:03:35;;;;;;;;;;;7.10;99.90;;;;;;5068677;28;21263;-54
2021/12/10 11:06:02;;;;;;;;;;;7.20;99.90;;;;;;5070234;28;19932;-57
2021/12/10 11:08:30;;;;;;;;;;;7.10;99.90;;;;;;5069654;28;20373;-57
2021/12/10 11:11:05;;;;;;;;;;;7.10;99.90;;;;;;5070106;28;19916;-56
2021/12/10 11:13:31;;;;;;;;;;;7.10;99.90;;;;;;5069834;28;19919;-58
2021/12/10 11:16:07;;;;;;;;;;;7.00;99.90;;;;;;5070090;28;19919;-57
2021/12/10 11:18:53;;;;;;;;;;;7.20;99.90;;;;;;5070730;28;20000;-57
2021/12/10 11:21:37;;;;;;;;;;;7.20;99.90;;;;;;5070907;28;20124;-58
2021/12/10 11:24:15;;;;;;;;;;;7.30;99.90;;;;;;5070287;28;19932;-57
2021/12/10 11:26:42;;;;;;;;;;;7.40;99.90;;;;;;5068537;28;19931;-57
2021/12/10 11:29:07;;;;;;;;;;;7.40;99.90;;;;;;5070029;28;19912;-57
2021/12/10 11:31:33;;;;;;;;;;;7.50;99.90;;;;;;5069377;28;19966;-56
2021/12/10 11:33:58;;;;;;;;;;;7.40;99.90;;;;;;5069814;28;19958;-57
2021/12/10 11:36:26;;;;;;;;;;;7.50;99.90;;;;;;5070689;28;19999;-57
2021/12/10 11:38:55;;;;;;;;;;;7.50;99.70;;;;;;5069487;28;19935;-57
2021/12/10 11:41:23;;;;;;;;;;;7.60;98.90;;;;;;5069759;28;19919;-57
2021/12/10 11:44:18;;;;;;;;;;;7.60;99.80;;;;;;5069310;28;19912;-57
2021/12/10 11:49:13;;;;;;;;;;;7.50;99.90;;;;;;5069614;28;20331;-57
2021/12/10 11:51:44;;;;;;;;;;;7.60;99.70;;;;;;5068702;28;19920;-58
2021/12/10 11:54:19;;;;;;;;;;;7.70;99.60;;;;;;5070165;28;19913;-57
2021/12/10 11:56:46;;;;;;;;;;;7.70;98.10;;;;;;5069242;28;19932;-55
2021/12/10 11:59:30;;;;;;;;;;;7.70;97.80;;;;;;5068579;28;19979;-57
2021/12/10 12:02:12;;;;;;;;;;;7.70;97.60;;;;;;5068720;28;20392;-57
2021/12/10 12:04:40;;;;;;;;;;;7.80;97.50;;;;;;5069178;28;19947;-57
2021/12/10 12:07:14;;;;;;;;;;;7.70;96.80;;;;;;5068962;28;20345;-59
2021/12/10 12:09:40;;;;;;;;;;;7.70;97.10;;;;;;5069107;28;19930;-57
2021/12/10 12:12:10;;;;;;;;;;;7.70;96.30;;;;;;5070083;28;19920;-56
2021/12/10 12:14:36;;;;;;;;;;;7.70;96.50;;;;;;5051526;28;19912;-57
2021/12/10 12:17:05;;;;;;;;;;;7.70;96.50;;;;;;5068380;28;19920;-57
2021/12/10 12:19:31;;;;;;;;;;;7.70;96.90;;;;;;5068759;28;19944;-57
2021/12/10 12:21:59;;;;;;;;;;;7.80;96.40;;;;;;5068943;28;19912;-56
2021/12/10 12:27:12;;;;;;;;;;;7.80;95.60;;;;;;5069012;28;19927;-53
2021/12/10 12:29:49;;;;;;;;;;;7.70;94.70;;;;;;5067439;28;19917;-55
2021/12/10 12:32:19;;;;;;;;;;;7.70;95.90;;;;;;5065505;28;19916;-55
2021/12/10 12:34:45;;;;;;;;;;;7.80;95.60;;;;;;5068510;28;19914;-57
2021/12/10 12:37:11;;;;;;;;;;;7.80;93.90;;;;;;5069270;28;19969;-56
2021/12/10 12:39:37;;;;;;;;;;;7.90;94.30;;;;;;5068519;28;19912;-57
2021/12/10 12:42:16;;;;;;;;;;;7.90;94.80;;;;;;5069476;28;20444;-56
2021/12/10 12:44:41;;;;;;;;;;;7.90;95.10;;;;;;5050758;28;19912;-56
2021/12/10 12:47:18;;;;;;;;;;;7.80;95.70;;;;;;5068624;28;19920;-56
2021/12/10 12:49:46;;;;;;;;;;;7.80;95.90;;;;;;5067539;28;19916;-57
2021/12/10 12:52:18;;;;;;;;;;;7.80;95.60;;;;;;5069074;28;19971;-56
2021/12/10 12:55:02;;;;;;;;;;;7.70;96.00;;;;;;5068796;28;20003;-56
2021/12/10 12:57:42;;;;;;;;;;;7.50;97.80;;;;;;5069856;28;19912;-56
2021/12/10 13:00:09;;;;;;;;;;;7.30;97.90;;;;;;5069736;28;19916;-57
2021/12/10 13:02:34;;;;;;;;;;;7.10;98.10;;;;;;5068545;28;19912;-57
2021/12/10 13:05:00;;;;;;;;;;;7.00;98.50;;;;;;5068307;28;19928;-56
2021/12/10 13:07:27;;;;;;;;;;;7.00;98.50;;;;;;5067761;28;19981;-58
2021/12/10 13:09:57;;;;;;;;;;;7.00;98.80;;;;;;5049647;28;20416;-57
2021/12/10 13:15:28;;;;;;;;;;;7.10;98.90;;;;;;5043660;28;19913;-58
2021/12/10 13:17:59;;;;;;;;;;;7.10;97.80;;;;;;5068836;28;19912;-57
2021/12/10 13:20:26;;;;;;;;;;;7.10;98.40;;;;;;5068283;28;19993;-56
2021/12/10 13:22:54;;;;;;;;;;;7.10;98.30;;;;;;5068326;28;19912;-57
2021/12/10 13:25:21;;;;;;;;;;;7.20;97.20;;;;;;5068057;28;20396;-57
2021/12/10 13:27:47;;;;;;;;;;;7.20;96.50;;;;;;5068449;28;19956;-57
2021/12/10 13:30:14;;;;;;;;;;;7.20;96.30;;;;;;5069899;28;20387;-58
2021/12/10 13:32:41;;;;;;;;;;;7.20;97.40;;;;;;5068631;28;19944;-58
2021/12/10 13:35:07;;;;;;;;;;;7.30;96.40;;;;;;5068853;28;19919;-56
2021/12/10 13:37:32;;;;;;;;;;;7.30;96.80;;;;;;5068563;28;19912;-57
2021/12/10 13:40:00;;;;;;;;;;;7.40;96.50;;;;;;5068435;28;19912;-57
2021/12/10 13:42:26;;;;;;;;;;;7.40;96.30;;;;;;5067035;28;20010;-57
2021/12/10 13:44:54;;;;;;;;;;;7.40;96.10;;;;;;5068552;28;20112;-57
2021/12/10 13:47:25;;;;;;;;;;;7.30;96.30;;;;;;5066174;28;19966;-57
2021/12/10 13:50:02;;;;;;;;;;;7.30;94.90;;;;;;5067495;28;22202;-57
2021/12/10 13:52:42;;;;;;;;;;;7.30;95.60;;;;;;5065637;28;19920;-57
2021/12/10 13:55:20;;;;;;;;;;;7.30;95.10;;;;;;5067261;28;19913;-58
2021/12/10 13:58:06;;;;;;;;;;;7.30;95.60;;;;;;5067606;28;19913;-57
2021/12/10 14:00:31;;;;;;;;;;;7.30;95.10;;;;;;5071313;28;19995;-56
2021/12/10 14:02:57;;;;;;;;;;;7.30;94.50;;;;;;5072589;28;20394;-57
2021/12/10 14:05:28;;;;;;;;;;;7.30;94.30;;;;;;5071643;28;19927;-57
2021/12/10 14:08:01;;;;;;;;;;;7.40;94.50;;;;;;5070714;28;19920;-57
2021/12/10 14:10:32;;;;;;;;;;;7.40;93.70;;;;;;5071552;28;19921;-57
2021/12/10 14:12:59;;;;;;;;;;;7.40;94.00;;;;;;5072261;28;20022;-57
2021/12/10 14:15:24;;;;;;;;;;;7.50;93.60;;;;;;5070094;28;19920;-57
2021/12/10 14:18:01;;;;;;;;;;;7.60;93.70;;;;;;5072075;28;19913;-57
2021/12/10 14:20:31;;;;;;;;;;;7.60;94.40;;;;;;5068455;28;19928;-56
2021/12/10 14:22:58;;;;;;;;;;;7.60;92.50;;;;;;5070288;28;19920;-57
2021/12/10 14:25:27;;;;;;;;;;;7.50;92.70;;;;;;5071250;28;19912;-57
2021/12/10 14:27:56;;;;;;;;;;;7.60;92.80;;;;;;5071601;28;19971;-57
2021/12/10 14:30:35;;;;;;;;;;;7.60;94.30;;;;;;5072732;28;19912;-58
2021/12/10 14:33:04;;;;;;;;;;;7.60;93.00;;;;;;5047782;28;20378;-57
2021/12/10 14:35:36;;;;;;;;;;;7.50;93.40;;;;;;5071192;28;19912;-53
2021/12/10 14:38:04;;;;;;;;;;;7.50;94.40;;;;;;5069357;28;19913;-57
2021/12/10 14:40:32;;;;;;;;;;;7.50;94.10;;;;;;5071047;28;19912;-58
2021/12/10 14:43:08;;;;;;;;;;;7.50;94.40;;;;;;5069937;28;20390;-56
2021/12/10 14:45:53;;;;;;;;;;;7.40;93.20;;;;;;5069122;28;19959;-57
2021/12/10 14:48:19;;;;;;;;;;;7.30;93.90;;;;;;5071671;28;19982;-54
2021/12/10 14:51:03;;;;;;;;;;;7.20;93.50;;;;;;5070133;28;19916;-56